Time;durP1;ratioP1;P1;durP2;ratioP2;P2;SDS_P1;SDS_P2;PMS_P1;PMS_P2;Temp;Humidity;BMP_temperature;BMP_pressure;BME280_temperature;BME280_humidity;BME280_pressure;Samples;Min_cycle;Max_cycle;Signal;HPM_P1;HPM_P2
2022/01/07 00:01:43;;;;;;;7.75;1.15;;;11.50;99.90;;;;;;5034935;28;20049;-81
2022/01/07 00:04:09;;;;;;;9.85;1.55;;;11.50;99.90;;;;;;5035637;28;20041;-81
2022/01/07 00:06:35;;;;;;;6.28;1.50;;;11.50;99.90;;;;;;5053867;28;20027;-81
2022/01/07 00:09:01;;;;;;;12.43;2.00;;;11.60;99.90;;;;;;5053969;28;20044;-81
2022/01/07 00:11:27;;;;;;;8.30;1.48;;;11.60;99.90;;;;;;5053818;28;20021;-81
2022/01/07 00:13:53;;;;;;;9.65;1.90;;;11.60;99.90;;;;;;5053962;28;20105;-81
2022/01/07 00:16:19;;;;;;;10.33;1.67;;;11.50;99.90;;;;;;5054117;28;20048;-81
2022/01/07 00:18:45;;;;;;;14.07;2.40;;;11.50;99.90;;;;;;5053687;28;20029;-80
2022/01/07 00:21:12;;;;;;;11.23;1.80;;;11.50;99.90;;;;;;5053268;28;20095;-80
2022/01/07 00:23:38;;;;;;;9.10;1.60;;;11.50;99.90;;;;;;5053242;28;20085;-80
2022/01/07 00:26:04;;;;;;;11.60;2.05;;;11.50;99.90;;;;;;5035403;28;20020;-81
2022/01/07 00:28:30;;;;;;;10.03;1.47;;;11.50;99.90;;;;;;5053339;28;20032;-80
2022/01/07 00:30:56;;;;;;;12.33;1.80;;;11.60;99.90;;;;;;5053245;28;20135;-81
2022/01/07 00:33:22;;;;;;;14.67;2.10;;;11.60;99.90;;;;;;5053297;28;20502;-81
2022/01/07 00:35:48;;;;;;;9.52;1.55;;;11.50;99.90;;;;;;5053134;28;20436;-81
2022/01/07 00:38:15;;;;;;;11.27;1.73;;;11.50;99.90;;;;;;5053629;28;20029;-82
2022/01/07 00:40:41;;;;;;;12.00;2.22;;;11.50;99.90;;;;;;5052930;28;20263;-81
2022/01/07 00:43:07;;;;;;;9.90;1.60;;;11.50;99.90;;;;;;5035498;28;20047;-81
2022/01/07 00:45:33;;;;;;;14.73;2.17;;;11.50;99.90;;;;;;5052690;28;20388;-82
2022/01/07 00:47:59;;;;;;;11.98;2.20;;;11.50;99.90;;;;;;5052803;28;20032;-80
2022/01/07 00:50:27;;;;;;;12.07;1.90;;;11.40;99.90;;;;;;5053091;28;20211;-81
2022/01/07 00:52:54;;;;;;;8.38;1.65;;;11.40;99.90;;;;;;5052964;28;20028;-81
2022/01/07 00:55:20;;;;;;;11.63;1.77;;;11.50;99.90;;;;;;5052846;28;20051;-81
2022/01/07 00:57:48;;;;;;;12.77;1.85;;;11.50;99.90;;;;;;5052973;28;20043;-81
2022/01/07 01:00:17;;;;;;;8.32;1.55;;;11.50;99.90;;;;;;5052563;28;20029;-81
2022/01/07 01:02:43;;;;;;;8.82;2.10;;;11.50;99.90;;;;;;5052468;28;20056;-80
2022/01/07 01:05:12;;;;;;;9.77;1.97;;;11.50;99.90;;;;;;5052430;28;20061;-80
2022/01/07 01:07:39;;;;;;;10.05;1.60;;;11.50;99.90;;;;;;5052525;28;20102;-82
2022/01/07 01:10:07;;;;;;;;;;;11.60;99.90;;;;;;5052747;28;20021;-81
2022/01/07 01:12:35;;;;;;;19.52;2.08;;;11.50;99.90;;;;;;5052453;28;19944;-81
2022/01/07 01:15:01;;;;;;;10.25;1.80;;;11.50;99.90;;;;;;5052475;28;20029;-80
2022/01/07 01:17:27;;;;;;;11.25;2.15;;;11.60;99.90;;;;;;5052281;28;20045;-82
2022/01/07 01:19:53;;;;;;;11.77;2.03;;;11.50;99.90;;;;;;5052757;28;20183;-82
2022/01/07 01:22:19;;;;;;;10.03;2.10;;;11.60;99.90;;;;;;5052690;28;20056;-82
2022/01/07 01:24:45;;;;;;;13.60;2.03;;;11.50;99.90;;;;;;5052411;28;20447;-82
2022/01/07 01:27:12;;;;;;;11.38;1.80;;;11.50;99.90;;;;;;5052293;28;20263;-81
2022/01/07 01:29:38;;;;;;;7.70;2.10;;;11.50;99.90;;;;;;5052266;28;20025;-82
2022/01/07 01:32:04;;;;;;;16.70;1.73;;;11.50;99.90;;;;;;5052320;28;20040;-81
2022/01/07 01:34:31;;;;;;;14.40;1.90;;;11.40;99.90;;;;;;5052193;28;20017;-82
2022/01/07 01:36:57;;;;;;;10.67;1.80;;;11.50;99.90;;;;;;5052537;28;20453;-82
2022/01/07 01:39:23;;;;;;;13.02;1.90;;;11.40;99.90;;;;;;5034087;28;20032;-82
2022/01/07 01:41:50;;;;;;;10.32;1.85;;;11.40;99.90;;;;;;5051900;28;20049;-81
2022/01/07 01:44:16;;;;;;;7.32;1.55;;;11.40;99.90;;;;;;5052011;28;20025;-81
2022/01/07 01:46:42;;;;;;;11.10;1.60;;;11.40;99.90;;;;;;5052354;28;20104;-82
2022/01/07 01:49:08;;;;;;;13.07;2.42;;;11.40;99.90;;;;;;5051937;28;20107;-82
2022/01/07 01:51:34;;;;;;;8.83;1.40;;;11.40;99.90;;;;;;5052098;28;20091;-82
2022/01/07 01:54:02;;;;;;;9.63;1.73;;;11.40;99.90;;;;;;5052357;28;20048;-81
2022/01/07 01:56:28;;;;;;;14.43;2.03;;;11.40;99.90;;;;;;5052054;28;20193;-82
2022/01/07 01:58:54;;;;;;;9.17;1.70;;;11.30;99.90;;;;;;5051477;28;20039;-82
2022/01/07 02:01:20;;;;;;;12.50;1.70;;;11.30;99.90;;;;;;5051596;28;20283;-82
2022/01/07 02:03:47;;;;;;;8.55;1.67;;;11.40;99.90;;;;;;5051709;28;20131;-83
2022/01/07 02:06:14;;;;;;;10.17;1.63;;;11.40;99.90;;;;;;5051653;28;20101;-82
2022/01/07 02:08:40;;;;;;;11.70;1.83;;;11.40;99.90;;;;;;5051389;28;20071;-82
2022/01/07 02:11:06;;;;;;;9.98;1.75;;;11.40;99.90;;;;;;5033926;28;20041;-80
2022/01/07 02:13:33;;;;;;;12.80;1.37;;;11.40;99.90;;;;;;5051903;28;20091;-83
2022/01/07 02:15:59;;;;;;;15.73;1.90;;;11.30;99.90;;;;;;5051372;28;20328;-82
2022/01/07 02:18:25;;;;;;;7.27;1.60;;;11.40;99.90;;;;;;5033382;28;20723;-82
2022/01/07 02:20:51;;;;;;;13.40;1.80;;;11.40;99.90;;;;;;5050465;28;20195;-82
2022/01/07 02:23:18;;;;;;;16.10;2.20;;;11.40;99.90;;;;;;5033222;28;20112;-82
2022/01/07 02:25:49;;;;;;;10.02;1.80;;;11.40;99.90;;;;;;5051713;28;20256;-82
2022/01/07 02:28:15;;;;;;;13.30;2.10;;;11.40;99.90;;;;;;5050963;28;20056;-80
2022/01/07 02:30:41;;;;;;;8.32;1.92;;;11.40;99.90;;;;;;5051022;28;20084;-80
2022/01/07 02:33:07;;;;;;;10.13;2.10;;;11.40;99.90;;;;;;5051088;28;20469;-80
2022/01/07 02:35:35;;;;;;;8.95;1.60;;;11.40;99.90;;;;;;5051355;28;20397;-80
2022/01/07 02:38:02;;;;;;;9.45;1.83;;;11.40;99.90;;;;;;5051224;28;20040;-80
2022/01/07 02:40:28;;;;;;;;;;;11.40;99.90;;;;;;5051504;28;20029;-80
2022/01/07 02:42:54;;;;;;;11.88;1.95;;;11.40;99.90;;;;;;5050898;28;20003;-80
2022/01/07 02:45:21;;;;;;;9.40;1.88;;;11.40;99.90;;;;;;5051216;28;20376;-81
2022/01/07 02:47:54;;;;;;;8.23;1.50;;;11.40;99.90;;;;;;5050861;28;20135;-81
2022/01/07 02:50:22;;;;;;;13.10;1.90;;;11.30;99.90;;;;;;5051666;28;20031;-82
2022/01/07 02:52:48;;;;;;;10.65;1.63;;;11.30;99.90;;;;;;5051400;28;20036;-82
2022/01/07 02:55:14;;;;;;;11.35;1.63;;;11.30;99.90;;;;;;5051382;28;20028;-82
2022/01/07 02:57:40;;;;;;;8.13;1.25;;;11.40;99.90;;;;;;5050894;28;20036;-82
2022/01/07 03:00:08;;;;;;;5.65;1.52;;;11.30;99.90;;;;;;5052265;28;20128;-82
2022/01/07 03:02:34;;;;;;;11.02;1.63;;;11.40;99.90;;;;;;5050359;28;20560;-81
2022/01/07 03:05:00;;;;;;;6.95;1.70;;;11.40;99.90;;;;;;5050876;28;20108;-81
2022/01/07 03:07:26;;;;;;;10.10;2.17;;;11.40;99.90;;;;;;5050841;28;20060;-81
2022/01/07 03:09:52;;;;;;;10.20;1.90;;;11.40;99.90;;;;;;5051391;28;20465;-81
2022/01/07 03:12:18;;;;;;;12.25;2.05;;;11.40;99.90;;;;;;5050733;28;20410;-81
2022/01/07 03:14:44;;;;;;;8.48;1.55;;;11.30;99.90;;;;;;5050595;28;20067;-80
2022/01/07 03:17:10;;;;;;;11.30;1.95;;;11.30;99.90;;;;;;5050850;28;20053;-81
2022/01/07 03:19:36;;;;;;;8.27;1.52;;;11.30;99.90;;;;;;5050687;28;20063;-81
2022/01/07 03:22:03;;;;;;;8.98;1.60;;;11.30;99.90;;;;;;5050713;28;20125;-81
2022/01/07 03:24:29;;;;;;;10.65;2.40;;;11.40;99.90;;;;;;5033215;28;20483;-82
2022/01/07 03:26:55;;;;;;;11.50;2.07;;;11.40;99.90;;;;;;5050873;28;20095;-83
2022/01/07 03:29:21;;;;;;;8.13;2.13;;;11.40;99.90;;;;;;5050479;28;20095;-82
2022/01/07 03:31:47;;;;;;;11.88;1.90;;;11.40;99.90;;;;;;5051957;28;20020;-82
2022/01/07 03:34:13;;;;;;;6.72;1.35;;;11.40;99.90;;;;;;5054828;28;20075;-82
2022/01/07 03:36:39;;;;;;;10.02;1.58;;;11.40;99.90;;;;;;5054714;28;20429;-82
2022/01/07 03:39:05;;;;;;;9.88;1.52;;;11.30;99.90;;;;;;5054512;28;20049;-82
2022/01/07 03:41:31;;;;;;;9.88;2.00;;;11.30;99.90;;;;;;5054541;28;20047;-82
2022/01/07 03:43:57;;;;;;;8.02;1.58;;;11.30;99.90;;;;;;5054715;28;20065;-82
2022/01/07 03:46:23;;;;;;;9.13;1.60;;;11.20;99.90;;;;;;5054533;28;20070;-82
2022/01/07 03:48:49;;;;;;;10.70;1.67;;;11.30;99.90;;;;;;5053993;28;20033;-82
2022/01/07 03:51:16;;;;;;;11.50;2.50;;;11.30;99.90;;;;;;5053809;28;20028;-82
2022/01/07 03:53:42;;;;;;;7.38;1.50;;;11.30;99.90;;;;;;5053881;28;20064;-81
2022/01/07 03:56:11;;;;;;;7.50;1.40;;;11.20;99.90;;;;;;5053940;28;20111;-82
2022/01/07 03:58:38;;;;;;;8.48;1.42;;;11.20;99.90;;;;;;5053860;28;20292;-81
2022/01/07 04:01:04;;;;;;;10.32;2.50;;;11.20;99.90;;;;;;5054190;28;20099;-81
2022/01/07 04:03:30;;;;;;;7.57;1.52;;;11.20;99.90;;;;;;5054787;28;20039;-81
2022/01/07 04:05:56;;;;;;;9.73;1.97;;;11.20;99.90;;;;;;5056418;28;20044;-82
2022/01/07 04:08:22;;;;;;;7.18;1.30;;;11.20;99.90;;;;;;5036023;28;20677;-81
2022/01/07 04:10:48;;;;;;;10.35;1.70;;;11.20;99.90;;;;;;5054157;28;20028;-81
2022/01/07 04:13:14;;;;;;;8.47;1.50;;;11.20;99.90;;;;;;5054102;28;20115;-81
2022/01/07 04:15:40;;;;;;;6.83;1.20;;;11.20;99.90;;;;;;5054711;28;20104;-80
2022/01/07 04:18:06;;;;;;;8.20;1.77;;;11.00;99.90;;;;;;5054128;28;20044;-81
2022/01/07 04:20:35;;;;;;;5.13;1.15;;;11.00;99.90;;;;;;5054471;28;20029;-82
2022/01/07 04:23:01;;;;;;;6.10;1.27;;;10.90;99.90;;;;;;5054757;28;20403;-81
2022/01/07 04:25:28;;;;;;;4.37;1.00;;;10.80;99.90;;;;;;5055281;28;20025;-82
2022/01/07 04:27:59;;;;;;;6.03;1.95;;;10.70;99.90;;;;;;5054982;28;20276;-81
2022/01/07 04:30:32;;;;;;;7.55;1.17;;;10.70;99.90;;;;;;5055432;28;20036;-80
2022/01/07 04:32:58;;;;;;;4.72;1.10;;;10.70;99.90;;;;;;5054710;28;20111;-81
2022/01/07 04:35:25;;;;;;;5.80;0.80;;;10.60;99.90;;;;;;5054810;28;20154;-80
2022/01/07 04:37:52;;;;;;;4.32;0.85;;;10.50;99.90;;;;;;5054478;28;20029;-82
2022/01/07 04:40:19;;;;;;;5.43;0.80;;;10.50;99.90;;;;;;5054979;28;20036;-82
2022/01/07 04:42:46;;;;;;;4.88;1.00;;;10.60;99.90;;;;;;5053526;28;20083;-82
2022/01/07 04:45:12;;;;;;;4.05;0.88;;;10.50;99.90;;;;;;5054452;28;20036;-82
2022/01/07 04:47:39;;;;;;;1.13;0.68;;;10.60;99.90;;;;;;5054875;28;20025;-82
2022/01/07 04:50:11;;;;;;;5.45;0.70;;;10.50;99.90;;;;;;5036342;28;20032;-82
2022/01/07 04:52:44;;;;;;;4.43;0.85;;;10.50;99.90;;;;;;5054543;28;20047;-81
2022/01/07 04:55:11;;;;;;;4.63;0.75;;;10.50;99.90;;;;;;5054897;28;20380;-81
2022/01/07 04:57:37;;;;;;;2.45;0.57;;;10.50;99.90;;;;;;5054264;28;20021;-81
2022/01/07 05:00:05;;;;;;;4.95;1.00;;;10.50;99.90;;;;;;5036236;28;20063;-82
2022/01/07 05:02:32;;;;;;;4.00;0.73;;;10.50;99.90;;;;;;5053885;28;20093;-81
2022/01/07 05:04:58;;;;;;;2.33;0.70;;;10.50;99.90;;;;;;5054560;28;20361;-82
2022/01/07 05:07:24;;;;;;;3.05;0.80;;;10.50;99.90;;;;;;5054634;28;20361;-79
2022/01/07 05:09:50;;;;;;;4.32;1.00;;;10.50;99.90;;;;;;5036800;28;20380;-81
2022/01/07 05:12:16;;;;;;;3.00;0.63;;;10.50;99.90;;;;;;5055271;28;20028;-81
2022/01/07 05:14:42;;;;;;;4.30;0.90;;;10.50;99.90;;;;;;5053907;28;20104;-79
2022/01/07 05:17:08;;;;;;;3.47;0.77;;;10.50;99.90;;;;;;5053272;28;20444;-79
2022/01/07 05:19:34;;;;;;;4.57;0.70;;;10.40;99.90;;;;;;5052224;28;20025;-80
2022/01/07 05:22:00;;;;;;;4.07;1.20;;;10.40;99.90;;;;;;5052667;28;20078;-81
2022/01/07 05:24:26;;;;;;;4.75;0.85;;;10.40;99.90;;;;;;5034345;28;20039;-81
2022/01/07 05:26:53;;;;;;;3.55;1.10;;;10.40;99.90;;;;;;5051764;28;20028;-81
2022/01/07 05:29:19;;;;;;;2.67;0.85;;;10.30;99.90;;;;;;5053522;28;20032;-80
2022/01/07 05:31:45;;;;;;;4.90;0.73;;;10.30;99.90;;;;;;5052724;28;20064;-80
2022/01/07 05:34:12;;;;;;;2.93;0.80;;;10.40;99.90;;;;;;5053139;28;20140;-79
2022/01/07 05:36:38;;;;;;;;;;;10.40;99.90;;;;;;5052917;28;20115;-77
2022/01/07 05:39:06;;;;;;;4.50;0.90;;;10.40;99.90;;;;;;5053649;28;19991;-81
2022/01/07 05:41:32;;;;;;;4.13;1.00;;;10.40;99.90;;;;;;5054132;28;20025;-81
2022/01/07 05:43:59;;;;;;;4.78;1.05;;;10.50;99.90;;;;;;5053833;28;20539;-81
2022/01/07 05:46:25;;;;;;;4.43;1.08;;;10.50;99.90;;;;;;5054065;28;20090;-81
2022/01/07 05:48:51;;;;;;;3.87;1.00;;;10.40;99.90;;;;;;5054386;28;20028;-80
2022/01/07 05:51:17;;;;;;;5.65;1.42;;;10.40;99.90;;;;;;5053603;28;20025;-81
2022/01/07 05:53:44;;;;;;;7.90;1.30;;;10.40;99.90;;;;;;5053801;28;20025;-82
2022/01/07 05:56:10;;;;;;;8.77;1.30;;;10.50;99.90;;;;;;5053673;28;20512;-81
2022/01/07 05:58:36;;;;;;;6.60;1.27;;;10.60;99.90;;;;;;5053525;28;20075;-80
2022/01/07 06:01:04;;;;;;;6.17;0.97;;;10.60;99.90;;;;;;5053541;28;20041;-80
2022/01/07 06:03:32;;;;;;;4.97;1.48;;;10.70;99.90;;;;;;5053567;28;20384;-80
2022/01/07 06:05:58;;;;;;;6.05;1.85;;;10.60;99.90;;;;;;5053709;28;20091;-81
2022/01/07 06:08:24;;;;;;;8.93;1.40;;;10.50;99.90;;;;;;5036331;28;20029;-80
2022/01/07 06:10:50;;;;;;;5.97;1.50;;;10.50;99.90;;;;;;5053697;28;20033;-80
2022/01/07 06:13:16;;;;;;;7.07;1.25;;;10.50;99.90;;;;;;5034596;28;20087;-81
2022/01/07 06:15:42;;;;;;;7.20;2.00;;;10.60;99.90;;;;;;5052532;28;20025;-79
2022/01/07 06:18:08;;;;;;;6.68;1.48;;;10.70;99.90;;;;;;5052496;28;20044;-80
2022/01/07 06:20:34;;;;;;;5.07;1.10;;;10.70;99.90;;;;;;5053324;28;20021;-82
2022/01/07 06:23:00;;;;;;;7.23;2.03;;;10.80;99.90;;;;;;5053699;28;20036;-80
2022/01/07 06:25:27;;;;;;;5.57;1.27;;;10.80;99.90;;;;;;5053597;28;20256;-81
2022/01/07 06:27:53;;;;;;;5.87;1.30;;;10.90;99.90;;;;;;5053627;28;20108;-80
2022/01/07 06:30:19;;;;;;;5.82;1.20;;;10.90;99.90;;;;;;5052682;28;20033;-80
2022/01/07 06:32:45;;;;;;;5.28;1.23;;;10.80;99.90;;;;;;5052940;28;20032;-81
2022/01/07 06:35:11;;;;;;;8.85;1.35;;;10.80;99.90;;;;;;5052717;28;20025;-81
2022/01/07 06:37:39;;;;;;;10.77;1.85;;;10.70;99.90;;;;;;5052424;28;20048;-81
2022/01/07 06:40:06;;;;;;;9.27;1.85;;;10.60;99.90;;;;;;5052894;28;20021;-81
2022/01/07 06:42:33;;;;;;;10.45;1.40;;;10.70;99.90;;;;;;5052164;28;20025;-82
2022/01/07 06:44:59;;;;;;;7.72;1.48;;;10.80;99.90;;;;;;5033201;28;20032;-82
2022/01/07 06:47:25;;;;;;;6.80;1.17;;;10.60;99.90;;;;;;5034331;28;20121;-82
2022/01/07 06:49:51;;;;;;;7.07;1.17;;;10.70;99.90;;;;;;5052421;28;20104;-83
2022/01/07 06:52:18;;;;;;;11.70;1.80;;;10.60;99.90;;;;;;5051975;28;20025;-83
2022/01/07 06:54:44;;;;;;;6.80;1.30;;;10.70;99.90;;;;;;5052130;28;20357;-82
2022/01/07 06:57:10;;;;;;;8.90;1.70;;;10.70;99.90;;;;;;5052366;28;20112;-81
2022/01/07 06:59:36;;;;;;;14.23;2.22;;;10.70;99.90;;;;;;5051944;28;20027;-81
2022/01/07 07:02:03;;;;;;;10.43;1.83;;;10.70;99.90;;;;;;5051676;28;20563;-80
2022/01/07 07:04:29;;;;;;;9.63;1.65;;;10.70;99.90;;;;;;5034416;28;20025;-80
2022/01/07 07:06:55;;;;;;;7.87;2.07;;;10.70;99.90;;;;;;5053783;28;20416;-81
2022/01/07 07:09:21;;;;;;;8.93;2.10;;;10.70;99.90;;;;;;5056203;28;20036;-83
2022/01/07 07:11:47;;;;;;;11.77;1.42;;;10.70;99.90;;;;;;5056279;28;20317;-85
2022/01/07 07:14:14;;;;;;;8.98;1.75;;;10.80;99.90;;;;;;5055762;28;20088;-85
2022/01/07 07:16:40;;;;;;;8.23;2.17;;;10.70;99.90;;;;;;5056369;28;20131;-84
2022/01/07 07:19:07;;;;;;;11.48;1.60;;;10.80;99.90;;;;;;5056450;28;20223;-80
2022/01/07 07:21:34;;;;;;;10.45;1.50;;;10.90;99.90;;;;;;5056271;28;20028;-81
2022/01/07 07:24:03;;;;;;;8.95;1.60;;;10.80;99.90;;;;;;5056246;28;20040;-80
2022/01/07 07:26:29;;;;;;;9.27;1.70;;;10.70;99.90;;;;;;5055977;28;20498;-79
2022/01/07 07:28:56;;;;;;;7.00;1.13;;;10.60;99.90;;;;;;5056376;28;20457;-80
2022/01/07 07:31:22;;;;;;;8.25;1.52;;;10.80;99.90;;;;;;5057392;28;20259;-80
2022/01/07 07:36:31;;;;;;;7.30;1.07;;;10.60;99.90;;;;;;5056659;28;20463;-81
2022/01/07 07:39:05;;;;;;;10.25;2.00;;;10.60;99.90;;;;;;5056816;28;20032;-79
2022/01/07 07:41:32;;;;;;;12.65;1.70;;;10.60;99.90;;;;;;5038665;28;20472;-79
2022/01/07 07:43:59;;;;;;;;;;;10.60;99.90;;;;;;5056208;28;20044;-80
2022/01/07 07:46:31;;;;;;;7.00;1.20;;;10.60;99.90;;;;;;5055676;28;19904;-80
2022/01/07 07:49:00;;;;;;;8.05;1.75;;;10.50;99.90;;;;;;5037805;28;20155;-80
2022/01/07 07:51:28;;;;;;;9.10;1.85;;;10.50;99.90;;;;;;5055923;28;20083;-81
2022/01/07 07:53:54;;;;;;;9.75;1.58;;;10.50;99.90;;;;;;5056202;28;20493;-80
2022/01/07 07:56:21;;;;;;;5.55;1.13;;;10.60;99.90;;;;;;5055603;28;20032;-79
2022/01/07 07:58:47;;;;;;;7.03;1.20;;;10.60;99.90;;;;;;5055099;28;20465;-80
2022/01/07 08:01:13;;;;;;;5.10;1.20;;;10.60;99.90;;;;;;5055380;28;20045;-80
2022/01/07 08:03:40;;;;;;;8.30;1.48;;;10.60;99.90;;;;;;5055103;28;20128;-80
2022/01/07 08:06:07;;;;;;;7.55;1.38;;;10.70;99.90;;;;;;5037533;28;20544;-81
2022/01/07 08:08:35;;;;;;;14.50;2.53;;;10.70;99.90;;;;;;5055867;28;20151;-82
2022/01/07 08:11:04;;;;;;;5.40;1.15;;;10.70;99.90;;;;;;5055903;28;20051;-81
2022/01/07 08:13:30;;;;;;;7.30;1.27;;;10.60;99.90;;;;;;5055246;28;20040;-82
2022/01/07 08:16:04;;;;;;;17.05;1.80;;;10.70;99.90;;;;;;5055569;28;20100;-82
2022/01/07 08:18:33;;;;;;;6.07;1.50;;;10.70;99.90;;;;;;5036409;28;20033;-80
2022/01/07 08:21:10;;;;;;;3.67;0.90;;;10.80;99.90;;;;;;5055547;28;20029;-82
2022/01/07 08:23:36;;;;;;;;;;;10.70;99.90;;;;;;5056019;28;20036;-82
2022/01/07 08:26:03;;;;;;;;;;;10.70;99.90;;;;;;5055785;28;19959;-82
2022/01/07 08:28:35;;;;;;;4.70;1.17;;;10.70;99.90;;;;;;5055594;28;19912;-82
2022/01/07 08:31:24;;;;;;;4.90;1.10;;;10.70;99.90;;;;;;5055480;28;20029;-82
2022/01/07 08:36:33;;;;;;;8.23;1.17;;;10.70;99.90;;;;;;5054726;28;20093;-80
2022/01/07 08:38:59;;;;;;;;;;;10.80;99.90;;;;;;5054610;28;20029;-81
2022/01/07 08:41:31;;;;;;;7.25;1.60;;;10.80;99.90;;;;;;5055288;28;20254;-81
2022/01/07 08:43:58;;;;;;;8.65;1.33;;;10.80;99.90;;;;;;5054628;28;20040;-83
2022/01/07 08:46:25;;;;;;;6.18;1.30;;;10.80;99.90;;;;;;5054852;28;20052;-81
2022/01/07 08:48:51;;;;;;;6.53;1.20;;;10.90;99.90;;;;;;5054286;28;20032;-82
2022/01/07 08:51:17;;;;;;;4.28;0.95;;;10.90;99.90;;;;;;5054079;28;20025;-81
2022/01/07 08:53:43;;;;;;;6.78;1.20;;;10.90;99.90;;;;;;5053585;28;20033;-82
2022/01/07 08:56:10;;;;;;;5.85;1.17;;;10.90;99.90;;;;;;5054168;28;20166;-81
2022/01/07 08:58:36;;;;;;;4.63;1.45;;;11.00;99.90;;;;;;5052999;28;20733;-81
2022/01/07 09:01:03;;;;;;;7.38;1.30;;;11.10;99.90;;;;;;5052881;28;20322;-81
2022/01/07 09:03:29;;;;;;;5.75;1.00;;;11.10;99.90;;;;;;5053910;28;20083;-82
2022/01/07 09:05:55;;;;;;;4.27;1.13;;;11.30;99.90;;;;;;5053870;28;20024;-78
2022/01/07 09:08:22;;;;;;;5.18;1.20;;;11.30;99.90;;;;;;5053619;28;20053;-80
2022/01/07 09:10:57;;;;;;;5.55;1.05;;;11.30;99.90;;;;;;5053412;28;20061;-81
2022/01/07 09:13:23;;;;;;;7.60;1.45;;;11.40;99.90;;;;;;5051706;28;20029;-80
2022/01/07 09:15:49;;;;;;;7.18;1.13;;;11.30;99.90;;;;;;5053066;28;20029;-81
2022/01/07 09:18:15;;;;;;;7.40;1.20;;;11.30;99.90;;;;;;5053695;28;20057;-82
2022/01/07 09:20:43;;;;;;;4.55;1.20;;;11.30;99.90;;;;;;5035880;28;20032;-81
2022/01/07 09:23:11;;;;;;;4.88;1.17;;;11.30;99.90;;;;;;5053886;28;20523;-82
2022/01/07 09:25:37;;;;;;;4.90;1.00;;;11.30;99.90;;;;;;5054135;28;20036;-82
2022/01/07 09:28:05;;;;;;;5.13;1.30;;;11.20;99.90;;;;;;5054148;28;20021;-83
2022/01/07 09:30:32;;;;;;;5.97;1.17;;;11.20;99.90;;;;;;5053773;28;20033;-82
2022/01/07 09:32:58;;;;;;;;;;;11.10;99.90;;;;;;5054485;28;20489;-83
2022/01/07 09:35:24;;;;;;;3.33;0.87;;;11.10;99.90;;;;;;5054463;28;19912;-83
2022/01/07 09:37:51;;;;;;;4.88;1.40;;;11.10;99.90;;;;;;5054060;28;20274;-83
2022/01/07 09:40:18;;;;;;;5.82;1.40;;;11.00;99.90;;;;;;5036505;28;20119;-82
2022/01/07 09:42:58;;;;;;;4.38;1.00;;;11.00;99.90;;;;;;5054528;28;20029;-81
2022/01/07 09:45:26;;;;;;;6.30;1.27;;;11.10;99.90;;;;;;5053652;28;20046;-81
2022/01/07 09:47:54;;;;;;;5.88;1.10;;;11.00;99.90;;;;;;5052872;28;20036;-82
2022/01/07 09:50:20;;;;;;;4.95;1.25;;;11.00;99.90;;;;;;5054179;28;20025;-81
2022/01/07 09:52:47;;;;;;;4.40;1.00;;;11.10;99.90;;;;;;5053348;28;20029;-83
2022/01/07 09:55:13;;;;;;;5.03;1.30;;;11.10;99.90;;;;;;5053415;28;20456;-82
2022/01/07 09:57:39;;;;;;;5.95;1.20;;;11.10;99.90;;;;;;5053814;28;20056;-81
2022/01/07 10:00:08;;;;;;;7.65;1.40;;;11.00;99.90;;;;;;5052717;28;20029;-81
2022/01/07 10:02:34;;;;;;;7.78;1.95;;;11.00;99.90;;;;;;5051790;28;20106;-78
2022/01/07 10:05:16;;;;;;;6.67;1.40;;;11.10;99.90;;;;;;5052630;28;20071;-79
2022/01/07 10:07:43;;;;;;;5.07;1.20;;;11.00;99.90;;;;;;5050787;28;20267;-80
2022/01/07 10:10:13;;;;;;;4.97;1.13;;;11.10;99.90;;;;;;5051965;28;20025;-81
2022/01/07 10:12:53;;;;;;;8.23;1.50;;;11.00;99.90;;;;;;5052341;28;20056;-81
2022/01/07 10:15:22;;;;;;;8.60;1.38;;;11.00;99.90;;;;;;5052365;28;20457;-81
2022/01/07 10:18:00;;;;;;;3.88;1.42;;;11.10;99.90;;;;;;5052556;28;20028;-81
2022/01/07 10:20:36;;;;;;;5.05;1.20;;;11.10;99.90;;;;;;5051487;28;20033;-82
2022/01/07 10:23:04;;;;;;;;;;;11.10;99.90;;;;;;5051378;28;20354;-80
2022/01/07 10:25:33;;;;;;;6.32;1.40;;;11.00;99.90;;;;;;5051000;28;20400;-80
2022/01/07 10:28:06;;;;;;;4.35;1.02;;;11.10;99.90;;;;;;5033083;28;20120;-81
2022/01/07 10:30:38;;;;;;;5.25;1.27;;;11.20;99.90;;;;;;5049338;28;20037;-83
2022/01/07 10:33:25;;;;;;;4.20;1.20;;;11.20;99.90;;;;;;5050926;28;20020;-81
2022/01/07 10:35:52;;;;;;;7.25;1.55;;;11.10;99.90;;;;;;5049008;28;20032;-80
2022/01/07 10:38:25;;;;;;;7.55;1.30;;;11.20;99.90;;;;;;5050654;28;20047;-81
2022/01/07 10:40:53;;;;;;;5.28;1.10;;;11.20;99.90;;;;;;5048780;28;20021;-81
2022/01/07 10:43:21;;;;;;;5.57;1.40;;;11.20;99.90;;;;;;5050706;28;20361;-81
2022/01/07 10:45:53;;;;;;;4.10;1.20;;;11.30;99.90;;;;;;5048363;28;20013;-83
2022/01/07 10:48:40;;;;;;;6.95;1.48;;;11.30;99.90;;;;;;5050606;28;20024;-82
2022/01/07 10:51:09;;;;;;;5.30;1.45;;;11.30;99.90;;;;;;5051388;28;20037;-82
2022/01/07 10:53:37;;;;;;;7.03;1.23;;;11.30;99.90;;;;;;5051659;28;20436;-82
2022/01/07 10:56:08;;;;;;;8.23;1.30;;;11.30;99.90;;;;;;5052404;28;20021;-77
2022/01/07 10:59:02;;;;;;;5.15;1.17;;;11.30;99.90;;;;;;5052617;28;20055;-82
2022/01/07 11:01:31;;;;;;;3.67;1.20;;;11.30;99.90;;;;;;5049692;28;20052;-82
2022/01/07 11:04:00;;;;;;;5.28;1.30;;;11.30;99.90;;;;;;5052323;28;20041;-80
2022/01/07 11:06:28;;;;;;;7.63;1.23;;;11.30;99.90;;;;;;5052028;28;20024;-81
2022/01/07 11:08:56;;;;;;;4.45;1.20;;;11.30;99.90;;;;;;5050803;28;20546;-77
2022/01/07 11:11:24;;;;;;;6.82;1.50;;;11.40;99.90;;;;;;5047919;28;20067;-81
2022/01/07 11:13:51;;;;;;;4.70;1.48;;;11.40;99.90;;;;;;5050579;28;20055;-81
2022/01/07 11:16:18;;;;;;;2.10;1.00;;;11.40;99.90;;;;;;5050673;28;20105;-81
2022/01/07 11:18:48;;;;;;;6.95;1.35;;;11.50;99.90;;;;;;5050945;28;20033;-82
2022/01/07 11:21:18;;;;;;;6.00;1.50;;;11.60;99.90;;;;;;5051120;28;20103;-82
2022/01/07 11:23:44;;;;;;;3.50;1.00;;;11.60;99.90;;;;;;5048407;28;20159;-81
2022/01/07 11:26:12;;;;;;;4.25;1.23;;;11.60;99.90;;;;;;5033619;28;20021;-82
2022/01/07 11:29:02;;;;;;;5.47;1.08;;;11.50;99.90;;;;;;5052837;28;20100;-81
2022/01/07 11:31:30;;;;;;;5.18;1.13;;;11.60;99.90;;;;;;5052348;28;20103;-82
2022/01/07 11:34:24;;;;;;;4.57;1.05;;;11.60;99.90;;;;;;5052280;28;20099;-82
2022/01/07 11:36:51;;;;;;;5.75;1.00;;;11.70;99.90;;;;;;5050518;28;20120;-82
2022/01/07 11:39:20;;;;;;;3.60;1.05;;;11.70;99.90;;;;;;5033960;28;20021;-80
2022/01/07 11:41:55;;;;;;;4.72;1.20;;;11.70;99.90;;;;;;5051957;28;20491;-81
2022/01/07 11:44:28;;;;;;;4.72;0.93;;;11.70;99.90;;;;;;5051814;28;20069;-82
2022/01/07 11:47:23;;;;;;;3.05;1.10;;;11.80;99.90;;;;;;5052363;28;20029;-81
2022/01/07 11:50:05;;;;;;;7.47;1.30;;;11.80;99.90;;;;;;5045097;28;20044;-81
2022/01/07 11:52:39;;;;;;;5.57;1.17;;;11.70;99.90;;;;;;5036074;28;20028;-82
2022/01/07 11:55:26;;;;;;;5.65;1.20;;;11.70;99.90;;;;;;5056491;28;20414;-82
2022/01/07 11:57:57;;;;;;;4.65;1.17;;;11.80;99.90;;;;;;5056497;28;20025;-82
2022/01/07 12:01:03;;;;;;;7.47;1.00;;;11.90;99.90;;;;;;5055715;28;20025;-86
2022/01/07 12:03:34;;;;;;;3.15;1.08;;;12.00;99.90;;;;;;5056323;28;20040;-87
2022/01/07 12:06:23;;;;;;;3.88;1.30;;;12.10;99.90;;;;;;5055769;28;20025;-86
2022/01/07 12:09:10;;;;;;;2.58;0.90;;;12.30;99.90;;;;;;5055706;28;20033;-85
2022/01/07 12:12:00;;;;;;;3.17;1.15;;;12.30;99.90;;;;;;5056120;28;20025;-87
2022/01/07 12:14:32;;;;;;;2.67;1.00;;;12.40;99.90;;;;;;5055617;28;20033;-83
2022/01/07 12:17:00;;;;;;;2.88;0.98;;;12.40;99.90;;;;;;5055578;28;20423;-87
2022/01/07 12:19:29;;;;;;;3.50;0.90;;;12.50;99.90;;;;;;5055369;28;20025;-86
2022/01/07 12:21:57;;;;;;;3.60;1.10;;;12.60;99.90;;;;;;5055953;28;20056;-86
2022/01/07 12:24:31;;;;;;;4.65;0.98;;;12.70;99.90;;;;;;5055528;28;20025;-88
2022/01/07 12:27:19;;;;;;;2.53;1.10;;;12.80;99.90;;;;;;5055235;28;20029;-87
2022/01/07 12:29:51;;;;;;;9.32;1.30;;;12.80;99.90;;;;;;5037368;28;20033;-86
2022/01/07 12:32:19;;;;;;;7.13;1.25;;;12.70;99.90;;;;;;5055970;28;20473;-87
2022/01/07 12:34:49;;;;;;;3.40;0.90;;;12.70;99.90;;;;;;5055404;28;20082;-84
2022/01/07 12:37:22;;;;;;;2.78;1.20;;;12.80;99.90;;;;;;5054404;28;20021;-86
2022/01/07 12:39:51;;;;;;;3.33;1.13;;;12.80;99.90;;;;;;5053091;28;20021;-88
2022/01/07 12:42:17;;;;;;;4.85;1.38;;;12.90;99.90;;;;;;5054386;28;20037;-88
2022/01/07 12:44:46;;;;;;;4.85;1.13;;;13.00;99.90;;;;;;5054397;28;20036;-87
2022/01/07 12:47:17;;;;;;;5.10;1.17;;;13.10;99.90;;;;;;5054880;28;20104;-85
2022/01/07 12:49:46;;;;;;;3.83;1.30;;;13.20;99.90;;;;;;5054903;28;20025;-85
2022/01/07 12:52:43;;;;;;;3.00;1.20;;;13.20;99.90;;;;;;5055118;28;20028;-85
2022/01/07 12:55:20;;;;;;;5.68;1.40;;;13.20;99.90;;;;;;5036615;28;20041;-85
2022/01/07 12:57:58;;;;;;;5.10;1.48;;;13.20;99.90;;;;;;5054970;28;20028;-85
2022/01/07 13:00:29;;;;;;;4.07;1.25;;;13.30;99.90;;;;;;5055635;28;20028;-85